Time;durP1;ratioP1;P1;durP2;ratioP2;P2;SDS_P1;SDS_P2;PMS_P1;PMS_P2;Temp;Humidity;BMP_temperature;BMP_pressure;BME280_temperature;BME280_humidity;BME280_pressure;Samples;Min_cycle;Max_cycle;Signal;HPM_P1;HPM_P2
2021/07/01 00:01:57;;;;;;;28.08;9.25;;;15.30;99.90;;;;;;5103793;28;20300;-74
2021/07/01 00:04:24;;;;;;;29.77;8.45;;;15.30;99.90;;;;;;5107474;28;20564;-73
2021/07/01 00:06:52;;;;;;;33.03;8.82;;;15.30;99.90;;;;;;5104481;28;20221;-73
2021/07/01 00:09:23;;;;;;;33.20;8.55;;;15.30;99.90;;;;;;5105415;28;20209;-73
2021/07/01 00:11:55;;;;;;;26.02;8.35;;;15.30;99.90;;;;;;5104703;28;20205;-74
2021/07/01 00:14:22;;;;;;;29.85;8.25;;;15.30;99.90;;;;;;5105532;28;20296;-73
2021/07/01 00:16:51;;;;;;;35.90;9.23;;;15.30;99.90;;;;;;5103130;28;20681;-74
2021/07/01 00:19:19;;;;;;;28.90;8.60;;;15.30;99.90;;;;;;5101221;28;20208;-74
2021/07/01 00:21:46;;;;;;;34.63;9.55;;;15.30;99.90;;;;;;5107279;28;20189;-73
2021/07/01 00:24:13;;;;;;;36.03;8.88;;;15.30;99.90;;;;;;5105401;28;20673;-74
2021/07/01 00:26:42;;;;;;;44.03;8.88;;;15.30;99.90;;;;;;5104523;28;20292;-73
2021/07/01 00:29:08;;;;;;;33.45;9.27;;;15.30;99.90;;;;;;5107042;28;20205;-74
2021/07/01 00:31:35;;;;;;;31.90;8.68;;;15.30;99.90;;;;;;5110797;27;20688;-74
2021/07/01 00:34:03;;;;;;;35.13;8.77;;;15.30;99.90;;;;;;5106848;28;20221;-73
2021/07/01 00:36:30;;;;;;;30.45;8.45;;;15.30;99.90;;;;;;5109812;28;20204;-73
2021/07/01 00:38:57;;;;;;;37.17;8.95;;;15.30;99.90;;;;;;5104793;28;20605;-73
2021/07/01 00:41:24;;;;;;;31.50;8.68;;;15.30;99.90;;;;;;5106804;28;20193;-74
2021/07/01 00:43:52;;;;;;;36.85;9.05;;;15.30;99.90;;;;;;5105968;28;20194;-73
2021/07/01 00:46:19;;;;;;;32.88;9.05;;;15.30;99.90;;;;;;5108875;28;20299;-73
2021/07/01 00:48:46;;;;;;;26.80;9.30;;;15.30;99.90;;;;;;5109027;28;20605;-73
2021/07/01 00:51:13;;;;;;;31.33;8.02;;;15.30;99.90;;;;;;5107622;28;20205;-74
2021/07/01 00:53:40;;;;;;;27.15;8.10;;;15.30;99.90;;;;;;5106873;27;20219;-74
2021/07/01 00:56:09;;;;;;;34.45;9.07;;;15.30;99.90;;;;;;5106930;28;20204;-73
2021/07/01 00:58:37;;;;;;;32.25;8.57;;;15.30;99.90;;;;;;5105164;28;20674;-73
2021/07/01 01:01:06;;;;;;;31.75;8.40;;;15.30;99.90;;;;;;5104547;28;20198;-73
2021/07/01 01:03:34;;;;;;;32.63;9.20;;;15.30;99.90;;;;;;5133831;27;20254;-73
2021/07/01 01:06:02;;;;;;;33.55;8.90;;;15.30;99.90;;;;;;5107051;28;20197;-73
2021/07/01 01:08:29;;;;;;;39.22;9.68;;;15.30;99.90;;;;;;5106233;28;20293;-72
2021/07/01 01:10:56;;;;;;;28.42;8.20;;;15.30;99.90;;;;;;5108434;28;20601;-73
2021/07/01 01:13:44;;;;;;;36.13;9.10;;;15.30;99.90;;;;;;5102278;28;20229;-73
2021/07/01 01:16:32;;;;;;;37.47;8.82;;;15.30;99.90;;;;;;5097196;28;20607;-73
2021/07/01 01:19:00;;;;;;;33.28;9.07;;;15.30;99.90;;;;;;5100324;28;20286;-74
2021/07/01 01:21:30;;;;;;;43.83;10.48;;;15.30;99.90;;;;;;5105832;28;20289;-74
2021/07/01 01:24:01;;;;;;;34.03;9.40;;;15.40;99.90;;;;;;5105496;28;20197;-73
2021/07/01 01:26:28;;;;;;;31.27;8.90;;;15.40;99.90;;;;;;5105598;28;20200;-73
2021/07/01 01:28:56;;;;;;;38.45;9.10;;;15.40;99.90;;;;;;5106278;28;20223;-74
2021/07/01 01:31:24;;;;;;;32.13;9.23;;;15.30;99.90;;;;;;5106860;28;20207;-74
2021/07/01 01:33:52;;;;;;;35.47;9.05;;;15.40;99.90;;;;;;5104059;28;20232;-73
2021/07/01 01:36:20;;;;;;;35.33;8.38;;;15.40;99.90;;;;;;5107259;28;20197;-74
2021/07/01 01:38:50;;;;;;;35.97;8.18;;;15.30;99.90;;;;;;5103438;28;20201;-73
2021/07/01 01:41:38;;;;;;;26.67;8.30;;;15.40;99.90;;;;;;5106472;28;20627;-74
2021/07/01 01:44:06;;;;;;;28.33;8.43;;;15.40;99.90;;;;;;5108615;28;20197;-74
2021/07/01 01:46:35;;;;;;;38.63;8.32;;;15.30;99.90;;;;;;5105039;28;20262;-74
2021/07/01 01:49:02;;;;;;;24.60;7.80;;;15.40;99.90;;;;;;5105477;28;20278;-73
2021/07/01 01:51:30;;;;;;;24.55;8.52;;;15.40;99.90;;;;;;5106975;28;20229;-74
2021/07/01 01:54:01;;;;;;;26.42;8.00;;;15.30;99.90;;;;;;5106642;28;20290;-74
2021/07/01 01:56:36;;;;;;;31.90;8.20;;;15.30;99.90;;;;;;5103530;28;20197;-74
2021/07/01 01:59:05;;;;;;;27.15;7.38;;;15.30;99.90;;;;;;5101581;28;20212;-74
2021/07/01 02:01:51;;;;;;;27.17;8.20;;;15.30;99.90;;;;;;5103252;28;20334;-74
2021/07/01 02:04:27;;;;;;;22.77;7.53;;;15.40;99.90;;;;;;5108519;28;20204;-74
2021/07/01 02:06:55;;;;;;;28.45;7.90;;;15.40;99.90;;;;;;5105467;28;20194;-74
2021/07/01 02:09:24;;;;;;;23.08;7.55;;;15.40;99.90;;;;;;5108649;28;20627;-75
2021/07/01 02:11:54;;;;;;;28.10;7.13;;;15.40;99.90;;;;;;5105894;28;20795;-74
2021/07/01 02:14:24;;;;;;;19.40;6.25;;;15.40;99.90;;;;;;5107389;28;20213;-74
2021/07/01 02:16:57;;;;;;;22.35;7.65;;;15.40;99.90;;;;;;5104708;28;20860;-74
2021/07/01 02:19:25;;;;;;;19.95;6.25;;;15.40;99.90;;;;;;5104759;28;20205;-74
2021/07/01 02:21:52;;;;;;;17.42;6.80;;;15.30;99.90;;;;;;5105919;28;20205;-74
2021/07/01 02:24:19;;;;;;;27.77;7.70;;;15.30;99.90;;;;;;5105692;28;20189;-74
2021/07/01 02:26:46;;;;;;;23.83;7.25;;;15.30;99.90;;;;;;5104636;28;20197;-74
2021/07/01 02:29:14;;;;;;;19.45;7.70;;;15.30;99.90;;;;;;5102219;28;20581;-74
2021/07/01 02:31:59;;;;;;;21.02;7.38;;;15.30;99.90;;;;;;5103787;28;20204;-73
2021/07/01 02:34:27;;;;;;;22.58;7.57;;;15.30;99.90;;;;;;5103077;28;20629;-73
2021/07/01 02:37:23;;;;;;;23.45;7.05;;;15.30;99.90;;;;;;5105182;28;20215;-73
2021/07/01 02:40:09;;;;;;;26.38;8.07;;;15.30;99.90;;;;;;5104248;28;20213;-74
2021/07/01 02:42:51;;;;;;;31.13;8.38;;;15.30;99.90;;;;;;5104574;28;20196;-74
2021/07/01 02:45:19;;;;;;;28.58;9.02;;;15.30;99.90;;;;;;5103843;28;20205;-74
2021/07/01 02:48:01;;;;;;;35.40;9.43;;;15.30;99.90;;;;;;5105791;28;20254;-74
2021/07/01 02:50:31;;;;;;;28.90;8.13;;;15.30;99.90;;;;;;5102656;28;20229;-73
2021/07/01 02:52:57;;;;;;;25.73;8.65;;;15.20;99.90;;;;;;5104336;28;20197;-74
2021/07/01 02:55:26;;;;;;;27.42;9.20;;;15.20;99.90;;;;;;5105309;28;20217;-73
2021/07/01 02:57:52;;;;;;;24.98;8.77;;;15.20;99.90;;;;;;5106919;28;20254;-74
2021/07/01 03:00:21;;;;;;;24.30;7.70;;;15.20;99.90;;;;;;5103049;28;20300;-74
2021/07/01 03:02:57;;;;;;;21.35;7.60;;;15.20;99.90;;;;;;5104266;28;20996;-74
2021/07/01 03:05:45;;;;;;;23.30;7.90;;;15.20;99.90;;;;;;5079699;28;20236;-73
2021/07/01 03:08:12;;;;;;;20.80;6.97;;;15.20;99.90;;;;;;5103137;28;20306;-74
2021/07/01 03:10:46;;;;;;;19.33;6.45;;;15.20;99.90;;;;;;5104905;28;20617;-74
2021/07/01 03:13:15;;;;;;;18.10;7.20;;;15.20;99.90;;;;;;5105550;28;20295;-73
2021/07/01 03:15:43;;;;;;;22.17;7.38;;;15.20;99.90;;;;;;5103438;28;20322;-73
2021/07/01 03:18:11;;;;;;;19.13;6.90;;;15.20;99.90;;;;;;5104453;28;20618;-74
2021/07/01 03:21:01;;;;;;;15.75;6.80;;;15.20;99.90;;;;;;5106333;28;20391;-74
2021/07/01 03:23:41;;;;;;;21.77;7.45;;;15.20;99.90;;;;;;5103656;28;20261;-73
2021/07/01 03:26:08;;;;;;;17.90;8.32;;;15.20;99.90;;;;;;5104012;28;20197;-74
2021/07/01 03:28:36;;;;;;;29.33;9.98;;;15.20;99.90;;;;;;5102663;28;20207;-73
2021/07/01 03:31:03;;;;;;;30.35;9.60;;;15.30;99.90;;;;;;5107032;28;20224;-74
2021/07/01 03:33:31;;;;;;;30.13;10.05;;;15.20;99.90;;;;;;5103130;28;20240;-74
2021/07/01 03:35:59;;;;;;;32.00;10.48;;;15.20;99.90;;;;;;5104614;28;20305;-73
2021/07/01 03:38:45;;;;;;;38.40;12.13;;;15.20;99.90;;;;;;5105298;28;20704;-73
2021/07/01 03:41:19;;;;;;;29.60;11.02;;;15.20;99.90;;;;;;5104651;28;20193;-74
2021/07/01 03:43:48;;;;;;;29.00;11.88;;;15.20;99.90;;;;;;5101919;28;20200;-73
2021/07/01 03:46:16;;;;;;;31.33;11.32;;;15.20;99.90;;;;;;5104749;28;20193;-73
2021/07/01 03:48:45;;;;;;;25.70;10.82;;;15.20;99.90;;;;;;5104116;28;20198;-73
2021/07/01 03:51:32;;;;;;;42.65;10.80;;;15.20;99.90;;;;;;5104998;28;20842;-74
2021/07/01 03:54:09;;;;;;;38.40;11.35;;;15.30;99.90;;;;;;5106334;28;20193;-73
2021/07/01 03:56:42;;;;;;;33.58;11.27;;;15.30;99.90;;;;;;5105919;28;20217;-73
2021/07/01 03:59:16;;;;;;;33.08;11.23;;;15.30;99.90;;;;;;5105673;28;20204;-73
2021/07/01 04:02:04;;;;;;;33.20;10.85;;;15.30;99.90;;;;;;5078454;28;20205;-73
2021/07/01 04:04:33;;;;;;;29.00;11.48;;;15.30;99.90;;;;;;5105812;28;20292;-73
2021/07/01 04:07:03;;;;;;;35.63;11.63;;;15.30;99.90;;;;;;5108082;28;20266;-73
2021/07/01 04:09:30;;;;;;;37.70;11.60;;;15.30;99.90;;;;;;5108932;28;20581;-73
2021/07/01 04:12:23;;;;;;;32.85;11.57;;;15.40;99.90;;;;;;5110343;28;20242;-73
2021/07/01 04:15:16;;;;;;;44.47;12.68;;;15.30;99.90;;;;;;5101274;28;20714;-73
2021/07/01 04:18:08;;;;;;;40.22;11.52;;;15.30;99.90;;;;;;5108266;28;20228;-73
2021/07/01 04:20:54;;;;;;;43.17;12.95;;;15.30;99.90;;;;;;5104681;28;20224;-73
2021/07/01 04:23:41;;;;;;;39.25;12.80;;;15.30;99.90;;;;;;5108448;28;20211;-74
2021/07/01 04:26:35;;;;;;;38.03;12.65;;;15.40;99.90;;;;;;5094111;28;20208;-73
2021/07/01 04:29:11;;;;;;;33.63;11.82;;;15.40;99.90;;;;;;5107649;28;20201;-73
2021/07/01 04:31:38;;;;;;;33.92;11.13;;;15.40;99.90;;;;;;5109640;28;20247;-74
2021/07/01 04:34:06;;;;;;;33.30;11.77;;;15.40;99.90;;;;;;5105672;28;20331;-74
2021/07/01 04:36:34;;;;;;;35.63;11.93;;;15.40;99.90;;;;;;5108986;28;20292;-73
2021/07/01 04:39:08;;;;;;;43.17;11.80;;;15.40;99.90;;;;;;5106978;28;20215;-75
2021/07/01 04:41:44;;;;;;;33.47;10.70;;;15.40;99.90;;;;;;5108199;28;20673;-73
2021/07/01 04:44:11;;;;;;;32.85;11.60;;;15.40;99.90;;;;;;5105884;28;20209;-73
2021/07/01 04:46:39;;;;;;;34.47;11.38;;;15.40;99.90;;;;;;5109766;28;20242;-74
2021/07/01 04:49:07;;;;;;;37.25;10.85;;;15.40;99.90;;;;;;5106582;28;20236;-76
2021/07/01 04:51:50;;;;;;;30.95;10.68;;;15.40;99.90;;;;;;5106921;28;20577;-74
2021/07/01 04:54:37;;;;;;;33.30;11.02;;;15.40;99.90;;;;;;5108660;28;20265;-75
2021/07/01 04:57:23;;;;;;;35.80;11.02;;;15.40;99.90;;;;;;5109817;28;20207;-74
2021/07/01 04:59:50;;;;;;;34.45;12.05;;;15.40;99.90;;;;;;5106357;28;20201;-73
2021/07/01 05:02:35;;;;;;;32.90;11.23;;;15.40;99.90;;;;;;5107740;28;20212;-73
2021/07/01 05:05:13;;;;;;;30.65;10.65;;;15.40;99.90;;;;;;5103587;28;20188;-77
2021/07/01 05:07:42;;;;;;;41.45;11.10;;;15.40;99.90;;;;;;5106957;28;20201;-77
2021/07/01 05:10:12;;;;;;;40.40;11.57;;;15.50;99.90;;;;;;5103442;28;20197;-74
2021/07/01 05:12:58;;;;;;;38.47;12.02;;;15.50;99.90;;;;;;5105632;28;20213;-71
2021/07/01 05:15:25;;;;;;;38.50;11.73;;;15.50;99.90;;;;;;5101582;28;20596;-74
2021/07/01 05:18:01;;;;;;;41.80;12.02;;;15.50;99.90;;;;;;5105385;28;20204;-72
2021/07/01 05:20:28;;;;;;;44.42;13.55;;;15.50;99.90;;;;;;5100269;28;20216;-72
2021/07/01 05:23:14;;;;;;;39.00;12.45;;;15.50;99.90;;;;;;5105407;28;20334;-72
2021/07/01 05:26:01;;;;;;;37.05;11.82;;;15.50;99.90;;;;;;5104847;28;20204;-70
2021/07/01 05:28:47;;;;;;;40.05;12.75;;;15.60;99.90;;;;;;5101378;28;20697;-69
2021/07/01 05:31:32;;;;;;;49.10;12.93;;;15.60;99.90;;;;;;5099843;28;20212;-71
2021/07/01 05:34:25;;;;;;;41.85;13.50;;;15.60;99.90;;;;;;5101180;28;20216;-72
2021/07/01 05:36:54;;;;;;;46.78;13.35;;;15.60;99.90;;;;;;5113338;27;20578;-71
2021/07/01 05:39:25;;;;;;;40.38;13.05;;;15.60;99.90;;;;;;5101715;28;20706;-72
2021/07/01 05:41:54;;;;;;;43.70;13.18;;;15.70;99.90;;;;;;5105002;28;20291;-70
2021/07/01 05:44:21;;;;;;;48.72;12.90;;;15.70;99.90;;;;;;5104024;28;20276;-71
2021/07/01 05:46:50;;;;;;;51.88;13.32;;;15.70;99.90;;;;;;5105069;28;20201;-72
2021/07/01 05:49:17;;;;;;;43.60;12.65;;;15.70;99.90;;;;;;5104156;28;20258;-71
2021/07/01 05:51:45;;;;;;;46.20;12.23;;;15.80;99.90;;;;;;5102042;28;20715;-72
2021/07/01 05:54:16;;;;;;;48.47;12.68;;;15.70;99.90;;;;;;5104866;28;20263;-72
2021/07/01 05:56:46;;;;;;;43.33;12.35;;;15.70;99.90;;;;;;5102693;28;20212;-71
2021/07/01 05:59:14;;;;;;;45.58;12.80;;;15.80;99.90;;;;;;5101797;28;22784;-71
2021/07/01 06:01:41;;;;;;;40.75;12.35;;;15.80;99.90;;;;;;5105354;28;20213;-70
2021/07/01 06:04:09;;;;;;;48.80;12.55;;;15.80;99.90;;;;;;5105941;28;20196;-70
2021/07/01 06:06:55;;;;;;;51.88;13.25;;;15.80;99.90;;;;;;5105845;28;20208;-71
2021/07/01 06:09:30;;;;;;;46.17;12.15;;;15.80;99.90;;;;;;5100983;28;20224;-70
2021/07/01 06:11:59;;;;;;;48.80;12.77;;;15.80;99.90;;;;;;5100317;28;20247;-70
2021/07/01 06:14:29;;;;;;;41.40;11.85;;;15.90;99.90;;;;;;5102420;28;20221;-71
2021/07/01 06:16:59;;;;;;;52.97;13.68;;;15.90;99.90;;;;;;5103121;28;20736;-72
2021/07/01 06:19:26;;;;;;;48.38;12.75;;;15.90;99.90;;;;;;5102458;28;20625;-71
2021/07/01 06:21:53;;;;;;;47.85;13.05;;;15.90;99.90;;;;;;5102365;28;20597;-71
2021/07/01 06:24:20;;;;;;;49.50;13.02;;;16.00;99.90;;;;;;5104776;28;20213;-72
2021/07/01 06:26:49;;;;;;;49.30;12.18;;;16.00;99.90;;;;;;5104703;28;20189;-72
2021/07/01 06:29:20;;;;;;;53.40;12.55;;;16.00;99.90;;;;;;5105115;28;20233;-71
2021/07/01 06:31:48;;;;;;;48.58;12.48;;;16.00;99.90;;;;;;5102451;28;20284;-71
2021/07/01 06:34:17;;;;;;;47.08;12.48;;;16.00;99.90;;;;;;5101502;28;20230;-72
2021/07/01 06:36:48;;;;;;;36.13;11.85;;;16.00;99.90;;;;;;5102919;28;20677;-72
2021/07/01 06:39:51;;;;;;;37.22;10.88;;;16.00;99.90;;;;;;5055010;28;20581;-72
2021/07/01 06:42:43;;;;;;;39.28;11.52;;;16.00;99.90;;;;;;5099724;28;20326;-71
2021/07/01 06:45:33;;;;;;;35.58;10.98;;;16.10;99.90;;;;;;5100905;28;20207;-72
2021/07/01 06:48:22;;;;;;;37.80;11.15;;;16.10;99.90;;;;;;5104835;28;20663;-74
2021/07/01 06:51:09;;;;;;;36.63;10.90;;;16.10;99.90;;;;;;5101306;28;20267;-73
2021/07/01 06:53:54;;;;;;;44.70;14.07;;;16.20;99.90;;;;;;5104153;28;22252;-71
2021/07/01 06:56:39;;;;;;;27.95;10.63;;;16.20;99.90;;;;;;5103843;27;20591;-75
2021/07/01 06:59:07;;;;;;;38.40;10.73;;;16.30;99.90;;;;;;5104386;28;20664;-72
2021/07/01 07:01:34;;;;;;;37.28;10.40;;;16.30;99.90;;;;;;5106783;28;20201;-73
2021/07/01 07:04:02;;;;;;;36.13;9.82;;;16.40;99.90;;;;;;5103284;28;20593;-71
2021/07/01 07:06:29;;;;;;;31.45;9.45;;;16.40;99.90;;;;;;5106084;28;20202;-72
2021/07/01 07:08:57;;;;;;;29.70;10.45;;;16.40;99.90;;;;;;5105184;28;20201;-74
2021/07/01 07:11:23;;;;;;;27.65;9.65;;;16.50;99.90;;;;;;5105474;28;20212;-72
2021/07/01 07:13:51;;;;;;;26.42;9.20;;;16.50;99.90;;;;;;5104848;28;20198;-76
2021/07/01 07:16:19;;;;;;;27.30;9.82;;;16.60;99.90;;;;;;5104933;28;20221;-70
2021/07/01 07:18:49;;;;;;;33.03;9.40;;;16.60;99.90;;;;;;5106102;28;20201;-71
2021/07/01 07:21:18;;;;;;;27.73;9.52;;;16.60;99.90;;;;;;5103818;28;20197;-71
2021/07/01 07:23:49;;;;;;;22.17;8.85;;;16.60;99.90;;;;;;5103943;28;20202;-71
2021/07/01 07:26:17;;;;;;;25.15;8.82;;;16.60;99.90;;;;;;5101785;28;20205;-71
2021/07/01 07:28:49;;;;;;;29.95;9.35;;;16.60;99.90;;;;;;5104571;28;20609;-73
2021/07/01 07:31:23;;;;;;;31.58;8.88;;;16.60;99.90;;;;;;5102136;28;20543;-71
2021/07/01 07:33:53;;;;;;;33.92;9.68;;;16.60;99.90;;;;;;5107188;28;20258;-72
2021/07/01 07:36:22;;;;;;;34.28;9.98;;;16.60;99.90;;;;;;5106522;28;20261;-72
2021/07/01 07:38:51;;;;;;;34.38;9.57;;;16.60;99.90;;;;;;5107264;28;20692;-72
2021/07/01 07:41:18;;;;;;;31.90;9.88;;;16.70;99.90;;;;;;5103268;28;20533;-71
2021/07/01 07:43:46;;;;;;;25.48;8.40;;;16.70;99.90;;;;;;5103257;28;20209;-72
2021/07/01 07:46:13;;;;;;;27.48;8.98;;;16.70;99.90;;;;;;5104615;28;20194;-72
2021/07/01 07:48:40;;;;;;;28.92;9.13;;;16.80;99.90;;;;;;5104815;28;20213;-72
2021/07/01 07:51:10;;;;;;;25.33;8.57;;;16.80;99.90;;;;;;5103168;28;21434;-72
2021/07/01 07:53:40;;;;;;;28.50;8.85;;;16.90;99.90;;;;;;5101954;28;20201;-72
2021/07/01 07:56:09;;;;;;;32.05;8.77;;;16.90;99.90;;;;;;5101861;28;20221;-71
2021/07/01 07:58:40;;;;;;;27.45;8.85;;;16.90;99.90;;;;;;5102848;28;20208;-72
2021/07/01 08:01:09;;;;;;;24.17;8.75;;;16.90;99.90;;;;;;5094508;28;20213;-71
2021/07/01 08:03:38;;;;;;;25.40;8.80;;;17.00;99.90;;;;;;5103810;28;20216;-71
2021/07/01 08:06:06;;;;;;;22.00;8.60;;;17.00;99.90;;;;;;5103789;28;20250;-72
2021/07/01 08:08:36;;;;;;;29.50;9.18;;;17.00;99.90;;;;;;5104283;28;20574;-73
2021/07/01 08:11:08;;;;;;;29.08;9.20;;;17.10;99.90;;;;;;5100705;28;20201;-72
2021/07/01 08:13:37;;;;;;;32.05;8.80;;;17.10;99.90;;;;;;5104482;28;20546;-71
2021/07/01 08:16:05;;;;;;;31.23;9.30;;;17.10;99.90;;;;;;5104921;28;20221;-71
2021/07/01 08:18:37;;;;;;;25.30;8.52;;;17.20;99.90;;;;;;5104359;28;20205;-72
2021/07/01 08:21:04;;;;;;;27.92;8.95;;;17.20;99.90;;;;;;5104937;28;20226;-71
2021/07/01 08:23:33;;;;;;;31.70;9.23;;;17.20;99.90;;;;;;5104347;28;20324;-72
2021/07/01 08:26:01;;;;;;;36.13;9.00;;;17.20;99.90;;;;;;5104641;28;20214;-71
2021/07/01 08:28:30;;;;;;;34.38;9.93;;;17.20;99.90;;;;;;5102342;28;20224;-71
2021/07/01 08:30:59;;;;;;;33.22;8.80;;;17.20;99.90;;;;;;5105123;28;20213;-70
2021/07/01 08:33:36;;;;;;;37.10;10.00;;;17.20;99.90;;;;;;5102515;28;20737;-71
2021/07/01 08:36:04;;;;;;;;;;;17.20;99.90;;;;;;5106305;28;20103;-72
2021/07/01 08:38:36;;;;;;;35.42;9.05;;;17.20;99.90;;;;;;5102806;28;20287;-72
2021/07/01 08:41:15;;;;;;;48.42;8.95;;;17.20;99.90;;;;;;5108364;28;20232;-72
2021/07/01 08:43:51;;;;;;;36.10;9.10;;;17.20;99.90;;;;;;5101381;28;20282;-71
2021/07/01 08:46:23;;;;;;;36.80;9.13;;;17.20;99.90;;;;;;5108247;28;20193;-72
2021/07/01 08:48:59;;;;;;;31.27;8.68;;;17.30;99.90;;;;;;5103490;28;20200;-72
2021/07/01 08:51:32;;;;;;;33.20;8.85;;;17.30;99.90;;;;;;5107586;28;20197;-71
2021/07/01 08:54:33;;;;;;;38.35;10.85;;;17.30;99.90;;;;;;5108227;28;20269;-70
2021/07/01 08:57:01;;;;;;;36.55;9.43;;;17.30;99.90;;;;;;5107177;28;21084;-71
2021/07/01 08:59:39;;;;;;;41.25;9.40;;;17.40;99.90;;;;;;5106044;28;20205;-70
2021/07/01 09:02:10;;;;;;;40.22;9.55;;;17.40;99.90;;;;;;5106397;28;20209;-70
2021/07/01 09:04:49;;;;;;;31.73;8.68;;;17.40;99.90;;;;;;5106662;28;20661;-70
2021/07/01 09:07:21;;;;;;;37.55;9.25;;;17.40;99.90;;;;;;5107904;28;20193;-70
2021/07/01 09:09:54;;;;;;;45.28;9.52;;;17.40;99.90;;;;;;5107488;28;20204;-70
2021/07/01 09:12:23;;;;;;;35.53;9.25;;;17.50;99.90;;;;;;5106874;28;20649;-73
2021/07/01 09:14:56;;;;;;;40.83;9.75;;;17.50;99.90;;;;;;5105173;28;20213;-72
2021/07/01 09:17:26;;;;;;;42.70;9.93;;;17.60;99.90;;;;;;5107326;28;20213;-72
2021/07/01 09:19:55;;;;;;;35.35;9.43;;;17.60;99.90;;;;;;5108073;28;20790;-73
2021/07/01 09:22:23;;;;;;;41.60;10.48;;;17.70;99.90;;;;;;5105888;28;20216;-71
2021/07/01 09:24:51;;;;;;;36.35;9.73;;;17.80;99.90;;;;;;5105624;28;20592;-71
2021/07/01 09:27:18;;;;;;;43.45;10.35;;;17.80;99.90;;;;;;5106178;28;20217;-69
2021/07/01 09:29:47;;;;;;;35.25;8.43;;;17.90;99.90;;;;;;5106292;28;20204;-71
2021/07/01 09:32:18;;;;;;;30.23;8.43;;;17.90;99.90;;;;;;5104341;27;20205;-71
2021/07/01 09:34:48;;;;;;;37.45;8.85;;;18.00;99.90;;;;;;5105758;28;20616;-71
2021/07/01 09:37:15;;;;;;;25.10;9.00;;;18.00;99.90;;;;;;5107754;28;20560;-71
2021/07/01 09:39:43;;;;;;;29.33;9.43;;;18.10;99.90;;;;;;5106829;28;20225;-70
2021/07/01 09:42:10;;;;;;;31.63;8.88;;;18.10;99.90;;;;;;5107212;28;20610;-72
2021/07/01 09:44:39;;;;;;;36.75;9.43;;;18.20;99.90;;;;;;5108544;28;20221;-70
2021/07/01 09:47:09;;;;;;;38.97;9.65;;;18.30;99.90;;;;;;5107412;28;20200;-70
2021/07/01 09:49:40;;;;;;;30.98;9.38;;;18.30;99.90;;;;;;5104317;28;20208;-70
2021/07/01 09:52:09;;;;;;;33.20;9.45;;;18.30;99.90;;;;;;5105121;28;20221;-70
2021/07/01 09:54:39;;;;;;;26.67;9.02;;;18.40;99.90;;;;;;5109447;28;20270;-70
2021/07/01 09:57:09;;;;;;;38.03;9.30;;;18.40;99.90;;;;;;5103838;28;20262;-72
2021/07/01 09:59:44;;;;;;;38.08;9.68;;;18.40;99.90;;;;;;5104505;28;20203;-69
2021/07/01 10:02:16;;;;;;;34.95;9.98;;;18.40;99.90;;;;;;5104715;28;21221;-70
2021/07/01 10:04:47;;;;;;;31.80;8.77;;;18.40;99.90;;;;;;5106037;28;20223;-72
2021/07/01 10:07:16;;;;;;;30.10;9.13;;;18.40;99.90;;;;;;5104103;28;20254;-70
2021/07/01 10:09:44;;;;;;;34.38;8.77;;;18.40;99.90;;;;;;5107040;28;20683;-69
2021/07/01 10:12:16;;;;;;;30.48;9.18;;;18.40;99.90;;;;;;5104813;28;20206;-72
2021/07/01 10:14:43;;;;;;;34.60;8.93;;;18.50;99.90;;;;;;5107587;28;20227;-71
2021/07/01 10:17:11;;;;;;;27.52;8.90;;;18.50;99.90;;;;;;5103940;28;20624;-69
2021/07/01 10:19:39;;;;;;;37.85;9.80;;;18.50;99.90;;;;;;5102434;28;20197;-72
2021/07/01 10:22:09;;;;;;;44.47;8.98;;;18.60;99.90;;;;;;5104494;28;20229;-70
2021/07/01 10:24:52;;;;;;;33.83;9.10;;;18.60;99.90;;;;;;5106228;28;20632;-69
2021/07/01 10:27:35;;;;;;;33.22;8.13;;;18.60;99.90;;;;;;5103436;28;20202;-71
2021/07/01 10:30:13;;;;;;;38.60;9.85;;;18.60;99.90;;;;;;5104419;28;20287;-70
2021/07/01 10:32:42;;;;;;;36.45;9.55;;;18.60;99.90;;;;;;5105384;28;20229;-70
2021/07/01 10:35:27;;;;;;;37.35;9.85;;;18.70;99.90;;;;;;5100077;28;20218;-70
2021/07/01 10:38:02;;;;;;;33.53;9.57;;;18.70;99.90;;;;;;5105155;28;20216;-69
2021/07/01 10:40:30;;;;;;;36.40;8.27;;;18.80;99.90;;;;;;5106393;28;20262;-69
2021/07/01 10:42:56;;;;;;;26.92;8.25;;;18.80;99.90;;;;;;5104447;28;20254;-69
2021/07/01 10:45:24;;;;;;;28.48;8.90;;;18.80;99.90;;;;;;5105759;28;20321;-72
2021/07/01 10:47:51;;;;;;;26.35;7.78;;;18.80;99.90;;;;;;5102885;28;20200;-70
2021/07/01 10:50:30;;;;;;;29.35;8.00;;;18.80;99.90;;;;;;5103072;28;20201;-70
2021/07/01 10:52:58;;;;;;;31.88;8.52;;;18.80;99.90;;;;;;5103742;28;20204;-71
2021/07/01 10:55:25;;;;;;;33.53;9.48;;;18.80;99.90;;;;;;5103627;28;20189;-69
2021/07/01 10:57:56;;;;;;;34.88;8.55;;;18.80;99.90;;;;;;5102916;28;20258;-70
2021/07/01 11:00:39;;;;;;;26.77;8.80;;;18.80;99.90;;;;;;5103521;28;20728;-70
2021/07/01 11:03:11;;;;;;;26.85;8.48;;;18.80;99.90;;;;;;5104405;28;20200;-72
2021/07/01 11:05:38;;;;;;;36.08;9.07;;;18.80;99.90;;;;;;5106633;28;20209;-71
2021/07/01 11:08:07;;;;;;;33.38;8.80;;;18.80;99.90;;;;;;5104568;28;20197;-70
2021/07/01 11:10:35;;;;;;;31.52;9.55;;;18.80;99.90;;;;;;5099749;28;20669;-74
2021/07/01 11:13:07;;;;;;;28.73;9.18;;;18.80;99.90;;;;;;5101761;28;20205;-77
2021/07/01 11:15:34;;;;;;;25.73;8.18;;;18.80;99.90;;;;;;5102071;28;20197;-72
2021/07/01 11:18:08;;;;;;;29.83;9.18;;;18.80;99.90;;;;;;5102875;28;20685;-74
2021/07/01 11:20:35;;;;;;;24.92;8.63;;;18.80;99.90;;;;;;5102920;28;20196;-75
2021/07/01 11:23:02;;;;;;;30.27;8.85;;;18.70;99.90;;;;;;5103955;28;20205;-74
2021/07/01 11:25:34;;;;;;;27.35;9.02;;;18.80;99.90;;;;;;5101640;28;20661;-75
2021/07/01 11:28:16;;;;;;;32.47;8.98;;;18.80;99.90;;;;;;5101839;28;20633;-76
2021/07/01 11:30:50;;;;;;;26.80;8.30;;;18.80;99.90;;;;;;5105357;28;20197;-71
2021/07/01 11:33:18;;;;;;;29.40;7.88;;;18.90;99.90;;;;;;5106030;28;20889;-71
2021/07/01 11:35:46;;;;;;;29.02;8.40;;;18.90;99.90;;;;;;5104208;28;20196;-71
2021/07/01 11:38:30;;;;;;;29.35;8.27;;;18.90;99.90;;;;;;5106392;28;20220;-72
2021/07/01 11:41:03;;;;;;;25.40;8.75;;;18.90;99.90;;;;;;5104657;28;20732;-72
2021/07/01 11:43:31;;;;;;;40.05;9.57;;;18.90;99.90;;;;;;5106067;28;20204;-72
2021/07/01 11:45:58;;;;;;;34.58;9.02;;;18.90;99.90;;;;;;5100613;28;20221;-70
2021/07/01 11:48:26;;;;;;;35.90;9.68;;;18.90;99.90;;;;;;5105753;28;20204;-70
2021/07/01 11:50:55;;;;;;;33.97;9.43;;;19.00;99.90;;;;;;5104893;28;20200;-71
2021/07/01 11:53:24;;;;;;;33.67;9.00;;;19.00;99.90;;;;;;5105511;28;20197;-72
2021/07/01 11:55:56;;;;;;;38.97;9.15;;;19.00;99.90;;;;;;5103408;28;20208;-73
2021/07/01 11:58:25;;;;;;;43.13;10.43;;;19.10;99.90;;;;;;5105369;28;20606;-70
2021/07/01 12:00:53;;;;;;;37.58;10.35;;;19.10;99.90;;;;;;5104795;28;20265;-71
2021/07/01 12:03:20;;;;;;;33.63;9.15;;;19.10;99.90;;;;;;5106172;28;20657;-70
2021/07/01 12:05:50;;;;;;;37.40;10.07;;;19.10;99.90;;;;;;5101530;28;20662;-72
2021/07/01 12:08:17;;;;;;;41.22;9.75;;;19.20;99.90;;;;;;5105300;28;20661;-73
2021/07/01 12:10:44;;;;;;;38.42;9.93;;;19.20;99.90;;;;;;5106166;28;20722;-71
2021/07/01 12:13:44;;;;;;;31.13;9.52;;;19.20;99.90;;;;;;5101995;28;20202;-69
2021/07/01 12:16:13;;;;;;;36.78;9.32;;;19.20;99.90;;;;;;5105355;28;20291;-71
2021/07/01 12:18:57;;;;;;;40.35;10.23;;;19.20;99.90;;;;;;5107831;28;20252;-76
2021/07/01 12:21:29;;;;;;;43.42;10.43;;;19.20;99.90;;;;;;5105225;28;20292;-70
2021/07/01 12:23:58;;;;;;;40.15;9.63;;;19.20;99.90;;;;;;5102805;28;20209;-70
2021/07/01 12:26:39;;;;;;;36.42;9.25;;;19.30;99.90;;;;;;5106579;28;20675;-71
2021/07/01 12:29:10;;;;;;;39.95;10.05;;;19.30;99.90;;;;;;5107599;28;20653;-71
2021/07/01 12:31:39;;;;;;;40.15;9.02;;;19.40;99.80;;;;;;5107358;28;20229;-72
2021/07/01 12:34:07;;;;;;;42.75;9.30;;;19.40;99.70;;;;;;5106282;28;20225;-71
2021/07/01 12:36:35;;;;;;;36.67;9.43;;;19.40;99.60;;;;;;5106152;28;20263;-70
2021/07/01 12:39:21;;;;;;;44.40;10.07;;;19.40;99.50;;;;;;5107944;28;20200;-71
2021/07/01 12:41:50;;;;;;;43.88;9.60;;;19.30;99.50;;;;;;5108130;28;20200;-74
2021/07/01 12:44:26;;;;;;;52.28;10.43;;;19.30;99.50;;;;;;5108625;28;20189;-72
2021/07/01 12:46:55;;;;;;;35.42;9.18;;;19.30;99.50;;;;;;5105509;28;21938;-71
2021/07/01 12:49:58;;;;;;;30.48;8.82;;;19.20;99.60;;;;;;5107104;28;20208;-72
2021/07/01 12:52:43;;;;;;;33.35;9.10;;;19.20;99.50;;;;;;5104594;28;20213;-72
2021/07/01 12:55:19;;;;;;;37.78;9.93;;;19.10;99.60;;;;;;5106736;28;20204;-71
2021/07/01 12:57:46;;;;;;;31.45;8.35;;;19.10;99.90;;;;;;5104409;28;20205;-71
2021/07/01 13:00:15;;;;;;;31.13;8.07;;;19.10;99.70;;;;;;5105095;28;20205;-72